North Branford, CT (06471)

11:12 PM EST on February 09, 2016 (GMT -0500)
Branford | | Change Station
CLOSE
Current Station
Personal Weather Station
Location: Branford, CT
Elevation: 125 ft
Nearby Weather Stations

Elev 125 ft 41.30 °N, 72.79 °W | Updated 9 seconds ago

Overcast
Overcast
26.4 °F
Feels Like 26 °F
N
0.0
Wind Variable Wind from NNE
Gusts 0.0 mph

Today
High -- | Low -- °F
--% Chance of Precip.
Yesterday
High -- | Low -- °F
Precip. -- in
Pressure 29.61 in
Visibility 10.0 miles
Clouds Scattered Clouds 6000 ft
Mostly Cloudy 7000 ft
Windchill 26 °F
Dew Point 22 °F
Humidity 83%
Rainfall in
Snow Depth Not available.
6:54 AM 5:16 PM
Waxing Crescent, 3% visible
METAR KHVN 100353Z AUTO 00000KT 10SM SCT060 BKN070 M02/M06 A2961 RMK AO2 SLP025 T10221061
Pressure 29.61 in
Visibility 10.0 miles
Clouds Scattered Clouds 6000 ft
Mostly Cloudy 7000 ft
Windchill 26 °F
Dew Point 22 °F
Humidity 83%
Rainfall in
Snow Depth Not available.
6:54 AM 5:16 PM
Waxing Crescent, 3% visible
METAR KHVN 100353Z AUTO 00000KT 10SM SCT060 BKN070 M02/M06 A2961 RMK AO2 SLP025 T10221061

10-Day Weather Forecast

Almanac

Astronomy

Feb. 09, 2016 Rise Set
Actual Time
Civil Twilight
Nautical Twilight
Astronomical Twilight
Moon
Length of Visible Light
Length of Day
Tomorrow will be .
, % of the Moon is Illuminated

Today's Extremes

State Highs State Lows

Community

WunderPhotos

Upload Photos

1,891,796 photos uploaded!

WunderBlog® & News

Nearby

Air Quality

  Air Quality AQ Index Pollutant
Not available.

Snow Depth

Station Depth Elevation

Earthquake Activity

City Distance Mag. Time & Date
Minimum magnitude displayed is 2.5.

Coastal Water Temperatures

Place Temperature

Stations

Nearby Weather Stations

Station Location Temp. Windchill Dew Point Humidity Wind Precip. Elev Updated Type
                   

Watches & Warnings

There are currently no watches in effect.